Time;durP1;ratioP1;P1;durP2;ratioP2;P2;SDS_P1;SDS_P2;PMS_P1;PMS_P2;Temp;Humidity;BMP_temperature;BMP_pressure;BME280_temperature;BME280_humidity;BME280_pressure;Samples;Min_cycle;Max_cycle;Signal;HPM_P1;HPM_P2
2021/05/26 00:02:12;;;;;;;1.38;0.30;;;;;;;9.83;60.67;100022.22;10594409;28;20050;-73
2021/05/26 00:07:13;;;;;;;0.95;0.30;;;;;;;9.86;61.12;100020.31;10594836;28;20202;-73
2021/05/26 00:12:15;;;;;;;2.38;0.40;;;;;;;9.79;61.84;100016.19;10592919;28;20040;-73
2021/05/26 00:17:17;;;;;;;1.75;0.50;;;;;;;9.65;61.88;100013.09;10575846;28;20050;-73
2021/05/26 00:22:18;;;;;;;2.22;0.40;;;;;;;9.83;61.30;100011.72;10592343;28;20052;-72
2021/05/26 00:27:20;;;;;;;1.60;0.40;;;;;;;9.74;61.71;100009.31;10574265;28;20051;-73
2021/05/26 00:32:22;;;;;;;2.40;0.40;;;;;;;9.89;61.64;100008.03;10573709;28;20039;-73
2021/05/26 00:37:23;;;;;;;1.60;0.40;;;;;;;10.01;60.48;100003.28;10592449;28;20044;-72
2021/05/26 00:42:26;;;;;;;0.88;0.50;;;;;;;9.76;61.61;99999.66;10572739;28;20057;-72
2021/05/26 00:47:43;;;;;;;1.33;0.40;;;;;;;9.81;61.35;100000.38;10591426;28;20040;-73
2021/05/26 00:52:44;;;;;;;1.75;0.50;;;;;;;9.84;60.49;99995.03;10590844;28;20040;-74
2021/05/26 00:57:48;;;;;;;1.15;0.30;;;;;;;9.82;61.31;99991.59;10572691;28;20047;-73
2021/05/26 01:02:53;;;;;;;2.03;0.43;;;;;;;9.97;60.16;99996.41;10572199;28;20138;-73
2021/05/26 01:07:56;;;;;;;1.70;0.60;;;;;;;9.82;61.06;99992.44;10570954;28;20044;-73
2021/05/26 01:12:58;;;;;;;2.03;0.63;;;;;;;9.96;60.28;99994.69;10594590;22;20040;-70
2021/05/26 01:18:30;;;;;;;2.55;0.50;;;;;;;9.85;60.51;99987.09;10544324;28;20123;-70
2021/05/26 01:23:40;;;;;;;1.60;0.63;;;;;;;10.00;60.05;99980.53;10543483;28;20412;-71
2021/05/26 01:28:42;;;;;;;2.75;0.55;;;;;;;9.91;60.85;99985.19;10525555;28;20056;-70
2021/05/26 01:33:47;;;;;;;0.90;0.40;;;;;;;9.75;60.93;99976.94;10544040;28;20040;-70
2021/05/26 01:38:53;;;;;;;1.67;0.60;;;;;;;9.66;60.78;99969.34;10543765;28;20043;-70
2021/05/26 01:43:57;;;;;;;2.33;0.63;;;;;;;9.92;60.73;99979.94;10525515;28;20048;-70
2021/05/26 01:49:00;;;;;;;2.33;0.60;;;;;;;9.58;62.15;99966.91;10543054;28;20068;-70
2021/05/26 01:54:03;;;;;;;2.33;0.68;;;;;;;9.56;61.24;99976.59;10543775;28;20067;-71
2021/05/26 01:59:05;;;;;;;2.70;0.70;;;;;;;9.33;62.78;99967.59;10543045;28;20044;-69
2021/05/26 02:04:08;;;;;;;1.10;0.50;;;;;;;9.07;64.10;99965.72;10541946;28;20401;-70
2021/05/26 02:09:10;;;;;;;1.63;0.50;;;;;;;9.07;63.76;99965.72;10542032;28;20040;-70
2021/05/26 02:14:12;;;;;;;1.00;0.65;;;;;;;8.98;63.31;99970.31;10558871;28;20097;-70
2021/05/26 02:19:14;;;;;;;1.20;0.47;;;;;;;8.87;64.03;99961.88;10548934;28;20134;-70
2021/05/26 02:24:16;;;;;;;1.83;0.50;;;;;;;8.94;64.14;99959.06;10565009;28;20055;-70
2021/05/26 02:29:18;;;;;;;2.00;0.50;;;;;;;8.72;64.44;99966.63;10583892;28;20043;-70
2021/05/26 02:34:22;;;;;;;2.22;0.47;;;;;;;8.88;63.82;99953.97;10566625;28;20047;-71
2021/05/26 02:39:24;;;;;;;1.67;0.47;;;;;;;8.85;64.19;99954.03;10565243;28;20127;-70
2021/05/26 02:44:26;;;;;;;3.65;0.73;;;;;;;8.91;63.92;99951.28;10583095;28;20035;-70
2021/05/26 02:49:28;;;;;;;3.55;0.70;;;;;;;8.89;64.22;99949.59;10564511;28;20134;-70
2021/05/26 02:54:30;;;;;;;1.73;0.50;;;;;;;8.50;65.70;99945.34;10583357;28;20047;-70
2021/05/26 02:59:32;;;;;;;1.85;0.50;;;;;;;8.33;66.36;99947.47;10564359;28;20050;-70
2021/05/26 03:05:04;;;;;;;2.75;0.60;;;;;;;8.06;67.58;99946.38;10565109;28;20044;-70
2021/05/26 03:10:08;;;;;;;1.17;0.50;;;;;;;8.20;68.21;99943.44;10581994;28;20055;-70
2021/05/26 03:15:15;;;;;;;3.47;0.80;;;;;;;8.56;66.66;99932.06;10582087;28;20039;-70
2021/05/26 03:20:18;;;;;;;2.17;0.80;;;;;;;8.44;67.39;99936.75;10562838;28;20092;-70
2021/05/26 03:25:19;;;;;;;1.95;0.70;;;;;;;8.41;66.89;99936.81;10582086;28;20404;-70
2021/05/26 03:30:29;;;;;;;2.50;0.65;;;;;;;8.64;66.77;99928.41;10563185;28;20048;-70
2021/05/26 03:35:32;;;;;;;5.22;0.82;;;;;;;8.55;67.24;99924.25;10589538;28;20039;-70
2021/05/26 03:40:37;;;;;;;4.88;1.42;;;;;;;8.34;69.07;99920.38;10572066;28;20043;-70
2021/05/26 03:45:41;;;;;;;1.87;0.60;;;;;;;8.38;68.41;99927.28;10572423;28;20048;-70
2021/05/26 03:50:46;;;;;;;4.05;1.15;;;;;;;8.53;68.66;99923.44;10589907;28;20063;-70
2021/05/26 03:55:50;;;;;;;2.30;0.70;;;;;;;8.80;68.53;99925.34;10572159;28;20032;-70
2021/05/26 04:01:06;;;;;;;1.63;0.70;;;;;;;8.91;67.01;99921.59;10589236;28;20126;-70
2021/05/26 04:06:11;;;;;;;1.38;0.50;;;;;;;9.69;61.36;99919.34;10571100;28;20043;-70
2021/05/26 04:11:13;;;;;;;2.42;0.70;;;;;;;9.96;60.74;99918.53;10589325;28;20035;-70
2021/05/26 04:16:30;;;;;;;2.13;0.85;;;;;;;10.16;60.13;99917.03;10570948;28;20109;-70
2021/05/26 04:21:46;;;;;;;2.20;0.90;;;;;;;10.09;60.39;99912.00;10573521;28;20433;-70
2021/05/26 04:26:48;;;;;;;1.60;0.50;;;;;;;10.15;60.22;99908.31;10588580;28;20465;-71
2021/05/26 04:31:51;;;;;;;2.83;0.93;;;;;;;10.10;60.22;99907.59;10588313;28;20097;-70
2021/05/26 04:36:53;;;;;;;2.42;0.68;;;;;;;10.28;60.74;99908.81;10588250;28;20035;-70
2021/05/26 04:41:55;;;;;;;1.65;0.60;;;;;;;10.28;60.56;99901.78;10588958;28;20074;-70
2021/05/26 04:46:56;;;;;;;1.65;0.70;;;;;;;10.50;60.78;99906.34;10586413;28;20055;-70
2021/05/26 04:51:58;;;;;;;4.03;0.70;;;;;;;10.60;59.81;99900.69;10587371;28;20120;-70
2021/05/26 04:57:00;;;;;;;3.17;0.93;;;;;;;10.57;60.90;99892.91;10586832;28;20114;-71
2021/05/26 05:02:01;;;;;;;2.42;0.63;;;;;;;10.76;59.80;99902.81;10586817;28;20131;-71
2021/05/26 05:07:03;;;;;;;1.95;0.80;;;;;;;10.97;60.41;99904.66;10587878;28;20422;-71
2021/05/26 05:12:05;;;;;;;1.98;0.50;;;;;;;11.02;59.49;99902.75;10587407;28;20440;-71
2021/05/26 05:17:07;;;;;;;2.47;0.80;;;;;;;11.22;59.29;99902.03;10587150;28;20122;-71
2021/05/26 05:22:09;;;;;;;3.40;0.68;;;;;;;11.12;61.11;99905.91;10586633;28;20052;-71
2021/05/26 05:27:10;;;;;;;3.00;1.20;;;;;;;11.21;60.53;99910.84;10569332;28;20122;-71
2021/05/26 05:32:12;;;;;;;3.13;1.40;;;;;;;11.90;57.87;99907.41;10586974;28;20489;-71
2021/05/26 05:37:13;;;;;;;2.53;1.15;;;;;;;11.81;58.74;99909.44;10586608;28;20405;-71
2021/05/26 05:42:15;;;;;;;1.92;1.00;;;;;;;12.06;57.11;99904.09;10585896;28;20497;-71
2021/05/26 05:47:17;;;;;;;3.15;1.27;;;;;;;12.05;58.94;99899.75;10585694;28;20118;-71
2021/05/26 05:52:19;;;;;;;1.88;0.90;;;;;;;12.12;58.00;99898.56;10585107;28;20122;-72
2021/05/26 05:57:21;;;;;;;3.92;1.17;;;;;;;12.62;56.93;99895.66;10585441;28;20530;-71
2021/05/26 06:02:22;;;;;;;2.70;0.70;;;;;;;12.70;55.10;99902.38;10584489;28;20040;-71
2021/05/26 06:07:25;;;;;;;1.88;1.00;;;;;;;12.57;54.14;99902.91;10585507;28;20366;-71
2021/05/26 06:12:27;;;;;;;2.85;0.73;;;;;;;12.73;54.50;99889.06;10584246;28;20486;-70
2021/05/26 06:17:29;;;;;;;1.75;0.70;;;;;;;12.65;53.77;99891.16;10584196;28;20088;-71
2021/05/26 06:22:30;;;;;;;4.57;1.00;;;;;;;12.78;53.07;99887.06;10584872;28;20564;-71
2021/05/26 06:27:32;;;;;;;1.52;0.70;;;;;;;12.82;53.76;99883.38;10583693;28;20044;-71
2021/05/26 06:32:34;;;;;;;5.68;1.15;;;;;;;13.03;53.36;99882.44;10583598;28;20050;-71
2021/05/26 06:37:37;;;;;;;2.05;1.02;;;;;;;12.98;52.83;99870.41;10584875;28;20493;-71
2021/05/26 06:42:38;;;;;;;2.80;0.90;;;;;;;12.82;52.50;99888.66;10583440;28;20053;-71
2021/05/26 06:47:41;;;;;;;3.03;0.70;;;;;;;12.85;54.18;99880.63;10583569;28;20399;-70
2021/05/26 06:52:43;;;;;;;3.20;1.15;;;;;;;12.99;52.60;99874.72;10583448;28;20052;-70
2021/05/26 06:57:46;;;;;;;4.43;1.05;;;;;;;12.85;52.89;99877.97;10582977;28;20118;-70
2021/05/26 07:02:48;;;;;;;2.17;0.90;;;;;;;13.14;52.38;99874.03;10583310;28;20043;-70
2021/05/26 07:07:50;;;;;;;2.55;1.17;;;;;;;13.84;50.81;99865.53;10582744;28;20044;-69
2021/05/26 07:18:17;;;;;;;1.75;0.55;;;;;;;13.69;51.39;99868.06;10389805;28;20065;-74
2021/05/26 07:23:19;;;;;;;4.20;1.10;;;;;;;14.17;50.80;99858.69;10323439;28;20078;-73
2021/05/26 07:28:21;;;;;;;3.38;0.80;;;;;;;14.50;48.82;99851.75;10324449;28;20046;-74
2021/05/26 07:33:22;;;;;;;2.05;0.50;;;;;;;14.45;48.20;99843.16;10342355;28;20070;-73
2021/05/26 07:38:24;;;;;;;3.10;0.95;;;;;;;15.05;47.16;99835.66;10342912;28;20050;-73
2021/05/26 07:43:28;;;;;;;3.35;1.00;;;;;;;15.43;45.89;99831.84;10341851;28;20069;-73
2021/05/26 07:48:31;;;;;;;2.83;0.90;;;;;;;15.16;47.00;99840.38;10341407;28;20047;-73
2021/05/26 07:53:32;;;;;;;2.67;0.50;;;;;;;14.79;47.45;99838.81;10324789;28;20408;-73
2021/05/26 07:58:34;;;;;;;1.85;0.82;;;;;;;15.17;45.73;99838.56;10340769;28;20077;-73
2021/05/26 08:03:36;;;;;;;3.00;0.95;;;;;;;15.02;46.24;99830.50;10324491;28;20056;-73
2021/05/26 08:08:38;;;;;;;3.35;0.75;;;;;;;14.77;46.55;99824.81;10342979;28;20050;-74
2021/05/26 08:13:40;;;;;;;3.60;0.90;;;;;;;14.89;46.60;99817.06;10342137;28;20046;-72
2021/05/26 08:18:42;;;;;;;2.22;0.88;;;;;;;14.95;45.66;99810.59;10345743;28;20057;-73
2021/05/26 08:23:44;;;;;;;3.10;0.90;;;;;;;14.92;45.18;99801.94;10350850;28;20054;-74
2021/05/26 08:28:45;;;;;;;1.98;0.70;;;;;;;15.16;46.42;99792.69;10357881;28;20436;-74
2021/05/26 08:33:47;;;;;;;2.47;1.10;;;;;;;14.89;46.57;99781.81;10357412;28;20046;-75
2021/05/26 08:38:49;;;;;;;2.05;0.80;;;;;;;14.71;46.66;99780.16;10357539;28;20050;-74
2021/05/26 08:43:51;;;;;;;3.38;0.98;;;;;;;14.83;47.62;99779.47;10355493;28;20034;-73
2021/05/26 08:48:53;;;;;;;2.17;0.60;;;;;;;14.66;46.71;99769.81;10354572;28;20045;-74
2021/05/26 08:53:55;;;;;;;2.63;0.82;;;;;;;14.55;45.85;99765.06;10386111;28;20046;-74
2021/05/26 08:58:57;;;;;;;2.10;0.70;;;;;;;14.48;46.25;99771.63;10352683;28;20051;-73
2021/05/26 09:04:26;;;;;;;2.08;1.00;;;;;;;14.49;46.65;99767.19;10377779;28;20042;-73
2021/05/26 09:09:44;;;;;;;2.47;0.60;;;;;;;14.36;46.59;99756.38;10394455;28;20058;-74
2021/05/26 09:14:46;;;;;;;2.15;0.65;;;;;;;14.36;46.60;99756.38;10396186;28;20566;-73
2021/05/26 09:19:47;;;;;;;2.90;0.70;;;;;;;14.43;46.65;99749.81;10373224;28;20088;-74
2021/05/26 09:24:49;;;;;;;2.20;0.88;;;;;;;14.26;47.32;99758.63;10344496;28;20043;-74
2021/05/26 09:29:54;;;;;;;1.85;0.80;;;;;;;14.36;47.88;99741.34;10343059;28;20064;-75
2021/05/26 09:34:58;;;;;;;1.85;0.80;;;;;;;14.54;46.71;99739.56;10344052;28;20097;-73
2021/05/26 09:40:06;;;;;;;2.83;1.00;;;;;;;14.84;47.66;99745.03;10326328;28;20081;-75
2021/05/26 09:45:25;;;;;;;4.85;0.82;;;;;;;14.89;46.82;99735.03;10343328;28;20050;-73
2021/05/26 09:50:35;;;;;;;1.75;0.50;;;;;;;14.94;46.02;99729.50;10344030;28;20055;-74
2021/05/26 09:55:42;;;;;;;2.35;0.80;;;;;;;15.10;45.97;99719.78;10373809;28;20053;-75
2021/05/26 10:00:46;;;;;;;0.88;0.40;;;;;;;15.31;44.95;99715.06;10354853;28;20054;-73
2021/05/26 10:05:48;;;;;;;1.58;0.40;;;;;;;15.20;45.12;99709.53;10324983;28;20081;-72
2021/05/26 10:11:09;;;;;;;1.20;0.45;;;;;;;15.18;45.26;99713.19;10341656;28;20046;-73
2021/05/26 10:16:17;;;;;;;;;;;;;;;15.12;45.06;99706.44;10321085;28;20086;-74
2021/05/26 10:21:23;;;;;;;0.82;0.30;;;;;;;15.07;45.17;99708.50;10337401;28;19921;-73
2021/05/26 10:26:46;;;;;;;1.48;0.40;;;;;;;15.22;45.84;99688.25;10320358;28;20085;-75
2021/05/26 10:31:49;;;;;;;1.35;0.70;;;;;;;15.38;45.92;99682.00;10342488;28;20416;-75
2021/05/26 10:36:52;;;;;;;4.18;1.98;;;;;;;15.53;46.25;99688.19;10340988;28;20046;-75
2021/05/26 10:41:53;;;;;;;1.60;0.57;;;;;;;14.98;50.23;99696.63;10324632;28;20141;-74
2021/05/26 10:46:55;;;;;;;2.13;0.73;;;;;;;14.50;54.17;99702.78;10341881;28;20492;-74
2021/05/26 10:51:57;;;;;;;2.13;0.60;;;;;;;14.32;54.61;99694.00;10322564;28;20058;-73
2021/05/26 10:56:59;;;;;;;1.67;0.63;;;;;;;14.22;54.34;99695.44;10324947;28;20471;-72
2021/05/26 11:02:03;;;;;;;4.88;0.95;;;;;;;14.13;56.27;99696.75;10340528;28;20042;-73
2021/05/26 11:07:19;;;;;;;1.13;0.63;;;;;;;14.01;55.01;99700.03;10341712;28;20069;-74
2021/05/26 11:12:21;;;;;;;1.83;0.50;;;;;;;14.23;53.84;99689.19;10324355;28;20042;-75
2021/05/26 11:17:29;;;;;;;1.67;0.70;;;;;;;14.35;56.12;99684.13;10321765;28;20133;-73
2021/05/26 11:22:30;;;;;;;1.40;0.57;;;;;;;14.53;55.09;99684.13;10322023;28;20047;-73
2021/05/26 11:27:32;;;;;;;2.13;0.57;;;;;;;14.60;54.10;99680.19;10340194;28;20038;-73
2021/05/26 11:32:34;;;;;;;1.30;0.63;;;;;;;14.39;55.64;99685.66;10342392;28;20065;-74
2021/05/26 11:37:40;;;;;;;1.95;1.05;;;;;;;14.35;57.21;99691.19;10323191;28;20042;-73
2021/05/26 11:42:43;;;;;;;1.75;0.60;;;;;;;14.06;58.04;99698.00;10338989;28;20074;-74
2021/05/26 11:47:47;;;;;;;1.33;0.65;;;;;;;13.81;59.77;99693.09;10342213;28;20042;-72
2021/05/26 11:52:53;;;;;;;0.75;0.52;;;;;;;13.72;61.65;99704.13;10340137;28;20046;-72
2021/05/26 11:57:55;;;;;;;1.67;0.70;;;;;;;13.61;63.32;99705.53;10329676;28;20415;-71
2021/05/26 12:03:03;;;;;;;3.20;0.80;;;;;;;13.30;62.53;99698.25;10347773;28;20385;-72
2021/05/26 12:08:15;;;;;;;2.97;0.70;;;;;;;13.30;63.98;99685.03;10347550;28;20229;-72
2021/05/26 12:13:20;;;;;;;0.60;0.40;;;;;;;13.55;59.39;99675.94;10348699;28;20043;-73
2021/05/26 12:18:22;;;;;;;1.05;0.55;;;;;;;13.92;60.39;99669.63;10313724;28;20046;-74
2021/05/26 12:23:44;;;;;;;1.27;0.68;;;;;;;14.43;58.57;99656.41;10347167;28;20054;-74
2021/05/26 12:28:46;;;;;;;3.05;0.80;;;;;;;14.87;58.64;99661.94;10331387;28;20038;-73
2021/05/26 12:33:53;;;;;;;1.15;0.50;;;;;;;14.80;56.41;99650.88;10331929;28;20062;-73
2021/05/26 12:39:05;;;;;;;2.90;0.85;;;;;;;14.79;57.73;99656.25;10332079;28;20061;-74
2021/05/26 12:44:07;;;;;;;1.52;0.60;;;;;;;14.81;56.68;99662.28;10349088;28;20042;-73
2021/05/26 12:49:48;;;;;;;1.58;0.50;;;;;;;14.68;57.37;99664.75;10331444;28;20089;-74
2021/05/26 12:54:50;;;;;;;1.25;0.50;;;;;;;14.77;55.65;99655.47;10345587;28;20058;-73
2021/05/26 13:00:00;;;;;;;0.65;0.30;;;;;;;14.95;53.68;99649.16;10346304;28;20046;-73
2021/05/26 13:05:03;;;;;;;2.75;0.40;;;;;;;15.16;52.29;99647.09;10312407;28;20042;-74
2021/05/26 13:10:20;;;;;;;1.90;0.40;;;;;;;14.96;51.41;99640.25;10330261;28;20117;-73
2021/05/26 13:15:33;;;;;;;1.02;0.40;;;;;;;15.18;49.86;99634.59;10331059;28;20046;-75
2021/05/26 13:20:38;;;;;;;0.98;0.30;;;;;;;15.36;51.43;99625.63;10467679;23;20043;-74
2021/05/26 13:25:42;;;;;;;1.60;0.38;;;;;;;15.29;49.91;99632.22;10518912;28;20045;-73
2021/05/26 13:30:47;;;;;;;1.45;0.20;;;;;;;15.09;49.76;99632.50;10520754;28;20114;-74
2021/05/26 13:35:50;;;;;;;0.63;0.30;;;;;;;15.03;49.64;99631.03;10483837;28;20037;-74
2021/05/26 13:40:51;;;;;;;0.82;0.30;;;;;;;14.81;49.54;99634.03;10484062;28;20044;-75
2021/05/26 13:45:53;;;;;;;1.17;0.30;;;;;;;14.62;50.09;99631.56;10506056;28;20470;-73
2021/05/26 13:50:54;;;;;;;0.40;0.20;;;;;;;14.81;49.42;99625.25;10506814;28;20075;-73
2021/05/26 13:55:56;;;;;;;1.35;0.30;;;;;;;15.51;49.74;99621.22;10506526;28;20127;-75
2021/05/26 14:00:58;;;;;;;0.73;0.30;;;;;;;15.83;48.59;99618.50;10508181;28;20048;-74
2021/05/26 14:05:59;;;;;;;0.52;0.32;;;;;;;15.51;48.89;99613.28;10487374;28;20041;-75
2021/05/26 14:11:01;;;;;;;1.30;0.30;;;;;;;15.18;49.69;99620.53;10483375;28;20045;-74
2021/05/26 14:16:06;;;;;;;0.50;0.40;;;;;;;15.04;50.51;99616.88;10443501;28;20368;-73
2021/05/26 14:21:07;;;;;;;0.40;0.22;;;;;;;15.07;50.16;99615.84;10465445;28;20067;-74
2021/05/26 14:26:09;;;;;;;1.50;0.30;;;;;;;15.08;50.01;99614.91;10443077;28;20139;-72
2021/05/26 14:31:11;;;;;;;1.15;0.30;;;;;;;15.16;50.83;99615.31;10460485;28;20564;-74
2021/05/26 14:36:17;;;;;;;0.80;0.20;;;;;;;15.27;48.52;99604.09;10459426;28;20045;-74
2021/05/26 14:41:19;;;;;;;0.28;0.20;;;;;;;15.23;48.34;99595.50;10441342;28;20041;-74
2021/05/26 14:46:21;;;;;;;2.72;0.10;;;;;;;15.87;47.82;99602.31;10460502;28;20041;-74
2021/05/26 14:51:23;;;;;;;0.50;0.22;;;;;;;15.97;46.70;99589.34;10460238;28;20581;-75
2021/05/26 14:56:26;;;;;;;0.73;0.20;;;;;;;15.44;47.61;99597.81;10444098;28;20095;-74
2021/05/26 15:01:28;;;;;;;0.20;0.20;;;;;;;14.91;48.43;99599.97;10460172;28;20055;-74
2021/05/26 15:06:31;;;;;;;0.20;0.20;;;;;;;14.92;49.37;99593.75;10463905;28;20052;-73
2021/05/26 15:11:33;;;;;;;0.30;0.15;;;;;;;15.01;48.74;99585.31;10443639;28;20041;-74
2021/05/26 15:16:35;;;;;;;0.45;0.20;;;;;;;15.41;48.58;99584.78;10444465;28;20045;-73
2021/05/26 15:21:37;;;;;;;0.43;0.10;;;;;;;15.39;49.01;99579.56;10462585;28;20053;-73
2021/05/26 15:26:38;;;;;;;0.20;0.20;;;;;;;15.20;48.58;99581.59;10448363;28;20111;-73
2021/05/26 15:31:40;;;;;;;0.73;0.10;;;;;;;15.06;49.00;99577.94;10466603;28;20041;-74
2021/05/26 15:36:42;;;;;;;0.40;0.10;;;;;;;15.21;48.73;99578.00;10465132;28;20059;-73
2021/05/26 15:41:44;;;;;;;0.65;0.20;;;;;;;15.17;49.13;99573.81;10428618;28;20148;-74
2021/05/26 15:46:51;;;;;;;0.60;0.30;;;;;;;15.18;48.91;99565.78;10465239;28;20041;-71
2021/05/26 15:51:53;;;;;;;0.22;0.22;;;;;;;15.35;48.85;99559.50;10451282;28;20521;-72
2021/05/26 15:56:55;;;;;;;0.40;0.30;;;;;;;15.23;49.00;99554.91;10443516;28;20346;-73
2021/05/26 16:01:57;;;;;;;0.77;0.22;;;;;;;15.21;48.50;99551.50;10462679;28;20051;-72
2021/05/26 16:06:59;;;;;;;0.22;0.10;;;;;;;15.19;48.54;99541.03;10464445;28;20124;-73
2021/05/26 16:12:01;;;;;;;0.10;0.10;;;;;;;15.26;48.15;99539.69;10464369;28;20051;-71
2021/05/26 16:17:03;;;;;;;0.73;0.30;;;;;;;15.22;48.47;99532.03;10466048;28;20055;-72
2021/05/26 16:22:05;;;;;;;0.50;0.30;;;;;;;15.18;49.23;99526.06;10463235;28;20064;-72
2021/05/26 16:27:07;;;;;;;1.52;1.00;;;;;;;15.56;48.30;99531.72;10465949;28;20120;-71
2021/05/26 16:32:11;;;;;;;0.50;0.40;;;;;;;16.28;46.35;99521.16;10450793;28;20072;-72
2021/05/26 16:37:14;;;;;;;0.40;0.20;;;;;;;15.86;47.29;99520.25;10467766;28;20048;-72
2021/05/26 16:42:17;;;;;;;0.22;0.20;;;;;;;15.63;47.15;99519.84;10472663;28;20045;-72
2021/05/26 16:47:20;;;;;;;0.38;0.30;;;;;;;15.41;48.61;99530.03;10455708;28;20041;-72
2021/05/26 16:52:22;;;;;;;1.85;0.40;;;;;;;15.25;48.01;99527.41;10474980;28;20045;-72
2021/05/26 16:57:26;;;;;;;0.25;0.20;;;;;;;15.21;48.16;99517.09;10458837;28;20037;-72
2021/05/26 17:02:28;;;;;;;0.80;0.40;;;;;;;14.98;49.16;99521.94;10452420;28;20083;-72
2021/05/26 17:07:29;;;;;;;0.73;0.40;;;;;;;14.79;49.20;99523.97;10472282;28;20102;-72
2021/05/26 17:12:34;;;;;;;0.10;0.10;;;;;;;14.76;48.92;99535.56;10453618;28;20139;-74
2021/05/26 17:17:37;;;;;;;0.32;0.15;;;;;;;14.64;49.90;99525.66;10470702;28;20041;-74
2021/05/26 17:22:40;;;;;;;0.63;0.20;;;;;;;14.61;49.90;99523.22;10450655;28;20044;-73
2021/05/26 17:27:44;;;;;;;0.30;0.30;;;;;;;14.66;50.19;99541.47;10471622;28;20472;-73
2021/05/26 17:32:46;;;;;;;0.30;0.30;;;;;;;14.53;50.16;99526.28;10472325;28;20045;-74
2021/05/26 17:37:51;;;;;;;1.33;1.00;;;;;;;14.49;51.31;99531.81;10467435;28;20051;-74
2021/05/26 17:42:53;;;;;;;0.45;0.35;;;;;;;14.39;50.73;99529.66;10465462;28;20049;-75
2021/05/26 17:47:56;;;;;;;0.50;0.47;;;;;;;14.44;50.90;99524.13;10465630;28;20044;-74
2021/05/26 17:52:58;;;;;;;0.20;0.20;;;;;;;14.35;51.06;99533.41;10470051;28;20072;-72
2021/05/26 17:58:03;;;;;;;0.57;0.40;;;;;;;14.52;51.16;99532.50;10469888;28;20060;-74
2021/05/26 18:03:07;;;;;;;1.90;0.55;;;;;;;14.59;50.67;99527.72;10470634;28;20108;-73
2021/05/26 18:08:09;;;;;;;1.02;0.30;;;;;;;14.46;51.17;99527.50;10470027;28;20048;-74
2021/05/26 18:13:12;;;;;;;0.20;0.20;;;;;;;14.56;51.39;99522.59;10451036;28;20043;-75
2021/05/26 18:18:14;;;;;;;1.13;0.30;;;;;;;14.22;51.58;99532.38;10468031;28;20041;-74
2021/05/26 18:23:22;;;;;;;1.35;0.30;;;;;;;14.14;51.99;99518.72;10467845;28;20494;-74
2021/05/26 18:28:24;;;;;;;0.85;0.68;;;;;;;14.10;52.10;99525.97;10464726;28;20041;-73
2021/05/26 18:33:27;;;;;;;1.88;0.90;;;;;;;14.02;52.82;99520.22;10467763;28;20052;-73
2021/05/26 18:38:29;;;;;;;1.65;0.45;;;;;;;14.13;52.27;99524.94;10463267;28;20040;-75
2021/05/26 18:43:30;;;;;;;1.75;0.43;;;;;;;13.95;52.72;99521.53;10466714;28;20556;-73
2021/05/26 18:48:32;;;;;;;0.30;0.28;;;;;;;13.94;53.12;99511.84;10444725;28;20041;-74
2021/05/26 18:53:35;;;;;;;0.57;0.28;;;;;;;13.91;52.87;99509.41;10463079;28;20409;-74
2021/05/26 18:58:36;;;;;;;0.22;0.22;;;;;;;13.86;53.11;99516.72;10465699;28;20063;-74
2021/05/26 19:03:39;;;;;;;0.63;0.30;;;;;;;13.81;53.38;99511.69;10464473;28;20040;-74
2021/05/26 19:08:40;;;;;;;0.38;0.30;;;;;;;13.64;53.61;99506.44;10468412;28;20041;-74
2021/05/26 19:13:42;;;;;;;0.22;0.22;;;;;;;13.62;53.74;99506.50;10464526;28;20071;-74
2021/05/26 19:18:45;;;;;;;0.50;0.30;;;;;;;13.62;53.86;99505.66;10484744;22;20040;-74
2021/05/26 19:23:47;;;;;;;0.80;0.38;;;;;;;13.72;53.56;99492.81;10547623;28;20070;-74
2021/05/26 19:28:48;;;;;;;0.93;0.52;;;;;;;13.75;53.88;99495.31;10530205;28;20146;-74
2021/05/26 19:33:50;;;;;;;0.73;0.22;;;;;;;13.75;54.58;99497.94;10549010;28;20040;-74
2021/05/26 19:38:53;;;;;;;1.35;0.40;;;;;;;13.69;55.15;99495.63;10549188;28;20058;-75
2021/05/26 19:43:54;;;;;;;0.70;0.40;;;;;;;13.38;56.97;99500.72;10548886;28;20059;-74
2021/05/26 19:48:57;;;;;;;0.65;0.35;;;;;;;13.45;57.64;99497.75;10548308;28;20512;-74
2021/05/26 19:54:04;;;;;;;1.75;0.40;;;;;;;13.38;57.47;99505.16;10548112;28;20044;-74
2021/05/26 19:59:06;;;;;;;0.70;0.40;;;;;;;13.20;58.12;99499.00;10547759;28;20044;-73
2021/05/26 20:04:08;;;;;;;0.32;0.20;;;;;;;13.19;57.30;99497.28;10527505;28;20073;-73
2021/05/26 20:09:09;;;;;;;0.40;0.40;;;;;;;13.05;59.50;99505.03;10525469;28;20048;-75
2021/05/26 20:14:11;;;;;;;1.02;0.52;;;;;;;12.79;61.43;99572.28;10528610;28;20101;-74
2021/05/26 20:19:13;;;;;;;0.35;0.20;;;;;;;11.98;62.38;99576.91;10551120;28;20032;-74
2021/05/26 20:24:15;;;;;;;0.77;0.40;;;;;;;11.51;66.61;99566.69;10533565;28;20398;-74
2021/05/26 20:29:17;;;;;;;0.22;0.20;;;;;;;11.45;67.13;99563.44;10551712;28;20067;-74
2021/05/26 20:34:19;;;;;;;0.20;0.20;;;;;;;11.19;67.13;99591.69;10531885;28;20051;-73
2021/05/26 20:39:20;;;;;;;0.32;0.30;;;;;;;11.03;68.47;99602.00;10534034;28;20040;-73
2021/05/26 20:44:22;;;;;;;0.52;0.40;;;;;;;10.92;69.17;99617.34;10533699;28;20063;-75
2021/05/26 20:49:24;;;;;;;1.00;0.25;;;;;;;10.78;68.60;99623.16;10533232;28;20062;-74
2021/05/26 20:54:26;;;;;;;0.80;0.30;;;;;;;10.56;68.49;99628.38;10532811;28;20066;-73
2021/05/26 20:59:27;;;;;;;0.35;0.32;;;;;;;10.48;68.78;99640.09;10550669;28;20082;-74
2021/05/26 21:04:29;;;;;;;0.20;0.20;;;;;;;10.30;69.24;99639.00;10531979;28;20072;-73
2021/05/26 21:09:31;;;;;;;0.80;0.10;;;;;;;10.19;68.94;99641.16;10549884;28;20097;-73
2021/05/26 21:14:33;;;;;;;0.28;0.28;;;;;;;10.25;69.04;99648.84;10550201;28;20046;-74
2021/05/26 21:19:34;;;;;;;0.47;0.30;;;;;;;10.09;69.54;99651.09;10531490;28;20036;-73
2021/05/26 21:24:36;;;;;;;0.77;0.30;;;;;;;10.09;68.99;99654.63;10530904;28;20074;-75
2021/05/26 21:29:38;;;;;;;0.28;0.28;;;;;;;10.07;69.28;99656.44;10548680;28;20405;-73
2021/05/26 21:34:39;;;;;;;0.30;0.13;;;;;;;9.91;69.79;99664.88;10548825;28;20576;-72
2021/05/26 21:39:41;;;;;;;0.40;0.30;;;;;;;9.85;69.47;99666.81;10529547;28;20046;-73
2021/05/26 21:44:43;;;;;;;0.32;0.20;;;;;;;9.82;69.98;99676.56;10529926;28;20055;-73
2021/05/26 21:49:45;;;;;;;2.03;0.40;;;;;;;9.65;70.11;99686.78;10547630;28;20036;-73
2021/05/26 21:54:48;;;;;;;0.17;0.17;;;;;;;9.66;70.40;99684.13;10547943;28;20444;-74
2021/05/26 21:59:50;;;;;;;0.47;0.30;;;;;;;9.55;71.09;99691.47;10548650;28;20036;-74
2021/05/26 22:04:51;;;;;;;0.20;0.17;;;;;;;9.56;71.48;99688.81;10529542;28;20070;-74
2021/05/26 22:09:53;;;;;;;0.20;0.20;;;;;;;9.68;71.33;99689.31;10547641;28;20486;-73
2021/05/26 22:14:55;;;;;;;0.20;0.20;;;;;;;9.69;71.47;99686.63;10528198;28;20054;-74
2021/05/26 22:19:57;;;;;;;0.40;0.20;;;;;;;9.63;71.70;99689.47;10545339;28;20040;-74
2021/05/26 22:24:59;;;;;;;1.45;0.30;;;;;;;9.69;71.68;99691.00;10546389;28;20556;-73
2021/05/26 22:30:01;;;;;;;0.40;0.20;;;;;;;9.73;71.55;99687.38;10545127;28;20529;-73
2021/05/26 22:35:03;;;;;;;0.68;0.30;;;;;;;9.69;71.47;99684.00;10545137;28;20036;-74
2021/05/26 22:40:06;;;;;;;0.30;0.20;;;;;;;9.66;70.72;99696.38;10545153;28;20036;-73
2021/05/26 22:45:34;;;;;;;0.20;0.20;;;;;;;9.69;69.76;99698.88;10545525;28;20048;-74
2021/05/26 22:50:39;;;;;;;0.45;0.20;;;;;;;9.74;69.64;99696.97;10544935;28;20063;-72
2021/05/26 22:55:43;;;;;;;0.95;0.30;;;;;;;9.65;70.34;99694.66;10526964;28;20040;-74
2021/05/26 23:00:48;;;;;;;0.90;0.22;;;;;;;9.77;69.92;99686.38;10543822;28;20036;-74
2021/05/26 23:05:57;;;;;;;0.43;0.30;;;;;;;9.49;70.95;99686.44;10545688;28;20040;-73
2021/05/26 23:10:59;;;;;;;1.35;0.30;;;;;;;9.52;71.07;99691.59;10546091;28;20493;-74
2021/05/26 23:16:01;;;;;;;0.28;0.22;;;;;;;9.48;70.73;99701.34;10528031;28;20062;-73
2021/05/26 23:21:04;;;;;;;0.40;0.40;;;;;;;9.36;71.32;99701.72;10542844;28;20051;-73
2021/05/26 23:26:06;;;;;;;0.22;0.20;;;;;;;9.28;71.34;99706.34;10544541;28;20036;-73
2021/05/26 23:31:07;;;;;;;0.30;0.30;;;;;;;9.40;71.07;99708.59;10543903;28;20516;-72
2021/05/26 23:36:09;;;;;;;0.88;0.52;;;;;;;9.41;70.84;99707.69;10543594;28;20043;-73
2021/05/26 23:41:11;;;;;;;1.10;0.50;;;;;;;9.39;70.77;99706.03;10524448;28;20067;-72